Time;durP1;ratioP1;P1;durP2;ratioP2;P2;SDS_P1;SDS_P2;PMS_P1;PMS_P2;Temp;Humidity;BMP_temperature;BMP_pressure;BME280_temperature;BME280_humidity;BME280_pressure;Samples;Min_cycle;Max_cycle;Signal;HPM_P1;HPM_P2
2022/01/19 00:00:57;;;;;;;3.10;0.65;;;6.30;81.20;;;;;;6047488;23;20518;-71
2022/01/19 00:03:24;;;;;;;1.10;0.60;;;6.30;81.00;;;;;;6050608;23;20022;-71
2022/01/19 00:05:52;;;;;;;0.93;0.43;;;6.30;80.90;;;;;;6039668;23;20501;-71
2022/01/19 00:08:21;;;;;;;1.40;0.60;;;6.30;80.70;;;;;;6049821;23;20166;-71
2022/01/19 00:10:50;;;;;;;1.20;0.40;;;6.30;80.70;;;;;;6048673;23;20094;-71
2022/01/19 00:13:23;;;;;;;0.80;0.50;;;6.30;80.80;;;;;;6048985;23;20030;-70
2022/01/19 00:16:10;;;;;;;3.25;0.55;;;6.30;80.70;;;;;;6049370;23;20066;-71
2022/01/19 00:18:39;;;;;;;1.38;0.43;;;6.30;80.60;;;;;;6009400;23;21457;-71
2022/01/19 00:21:23;;;;;;;1.31;0.43;;;6.40;80.60;;;;;;4979049;23;10148983;-71
2022/01/19 00:23:50;;;;;;;0.93;0.50;;;6.30;80.60;;;;;;2083631;23;10001989;-70
2022/01/19 00:26:17;;;;;;;0.65;0.45;;;6.30;80.60;;;;;;6050561;23;20493;-72
2022/01/19 00:28:44;;;;;;;0.20;0.20;;;6.30;80.60;;;;;;6049790;23;20030;-72
2022/01/19 00:31:13;;;;;;;2.30;0.50;;;6.30;80.70;;;;;;6072082;23;20378;-70
2022/01/19 00:33:42;;;;;;;0.90;0.30;;;6.30;80.70;;;;;;6069956;23;20129;-72
2022/01/19 00:36:09;;;;;;;1.35;0.40;;;6.30;80.70;;;;;;6045692;23;20325;-71
2022/01/19 00:38:36;;;;;;;1.50;0.50;;;6.30;80.80;;;;;;6047488;23;20390;-73
2022/01/19 00:41:02;;;;;;;1.17;0.35;;;6.30;80.70;;;;;;6048157;23;20572;-70
2022/01/19 00:43:30;;;;;;;1.90;0.70;;;6.30;80.50;;;;;;6045473;23;20029;-70
2022/01/19 00:45:57;;;;;;;0.82;0.30;;;6.20;80.20;;;;;;6048225;23;20023;-71
2022/01/19 00:48:24;;;;;;;0.82;0.43;;;6.20;80.10;;;;;;6046411;23;20042;-72
2022/01/19 00:50:52;;;;;;;0.65;0.35;;;6.20;80.10;;;;;;6052141;23;20023;-70
2022/01/19 00:53:19;;;;;;;1.27;0.57;;;6.20;80.10;;;;;;6045775;23;20184;-71
2022/01/19 00:55:46;;;;;;;1.40;0.60;;;6.20;80.00;;;;;;6048567;23;20019;-72
2022/01/19 00:58:13;;;;;;;1.00;0.47;;;6.20;80.10;;;;;;6047123;23;20027;-72
2022/01/19 01:00:41;;;;;;;0.93;0.50;;;6.30;80.10;;;;;;6045772;23;20019;-72
2022/01/19 01:03:07;;;;;;;1.85;0.57;;;6.20;80.10;;;;;;6047801;23;20030;-70
2022/01/19 01:05:35;;;;;;;0.45;0.30;;;6.20;80.30;;;;;;6048052;23;20019;-72
2022/01/19 01:08:04;;;;;;;0.80;0.40;;;6.20;80.20;;;;;;6048306;23;20030;-71
2022/01/19 01:10:40;;;;;;;1.17;0.43;;;6.20;80.20;;;;;;6045265;23;20243;-72
2022/01/19 01:13:20;;;;;;;3.45;0.90;;;6.20;79.90;;;;;;6050720;23;20054;-71
2022/01/19 01:15:48;;;;;;;0.75;0.40;;;6.20;80.10;;;;;;6047206;23;20102;-69
2022/01/19 01:18:20;;;;;;;0.98;0.40;;;6.20;80.00;;;;;;6069406;23;20027;-71
2022/01/19 01:20:51;;;;;;;0.50;0.40;;;6.20;79.80;;;;;;6071843;23;20022;-71
2022/01/19 01:23:22;;;;;;;1.17;0.40;;;6.20;79.80;;;;;;6071747;23;20031;-72
2022/01/19 01:25:50;;;;;;;1.17;0.45;;;6.20;79.80;;;;;;6048136;23;20019;-71
2022/01/19 01:28:18;;;;;;;1.67;0.57;;;6.20;79.70;;;;;;6072763;23;20046;-71
2022/01/19 01:30:46;;;;;;;0.88;0.28;;;6.20;79.70;;;;;;6074114;23;20398;-71
2022/01/19 01:33:13;;;;;;;1.52;0.60;;;6.20;79.50;;;;;;6052186;23;20019;-71
2022/01/19 01:35:41;;;;;;;1.25;0.40;;;6.10;79.60;;;;;;6050955;23;20046;-71
2022/01/19 01:38:08;;;;;;;1.10;0.57;;;6.20;79.70;;;;;;6051743;23;20065;-71
2022/01/19 01:40:38;;;;;;;1.85;0.50;;;6.10;79.60;;;;;;6050698;23;20026;-72
2022/01/19 01:43:07;;;;;;;1.10;0.40;;;6.10;79.50;;;;;;6074222;23;20033;-73
2022/01/19 01:45:38;;;;;;;0.32;0.30;;;6.10;79.50;;;;;;6073084;23;20110;-72
2022/01/19 01:48:09;;;;;;;0.95;0.50;;;6.10;79.50;;;;;;6049308;23;20027;-71
2022/01/19 01:53:31;;;;;;;0.63;0.40;;;6.10;79.30;;;;;;6069290;23;20230;-71
2022/01/19 01:56:02;;;;;;;0.60;0.30;;;6.10;79.40;;;;;;6072662;23;20027;-72
2022/01/19 01:58:33;;;;;;;1.17;0.40;;;6.10;79.40;;;;;;6072550;23;20030;-71
2022/01/19 02:01:19;;;;;;;1.73;0.70;;;6.10;79.30;;;;;;6047651;23;20042;-73
2022/01/19 02:03:46;;;;;;;1.67;0.55;;;6.00;79.20;;;;;;6049310;23;20011;-72
2022/01/19 02:06:31;;;;;;;0.63;0.45;;;6.00;79.40;;;;;;6049363;23;20066;-71
2022/01/19 02:09:18;;;;;;;1.02;0.50;;;6.00;79.40;;;;;;6074038;23;20093;-71
2022/01/19 02:23:22;;;;;;;1.63;0.60;;;6.00;78.90;;;;;;6072006;23;20457;-72
2022/01/19 02:25:51;;;;;;;0.80;0.40;;;6.00;79.00;;;;;;6049237;23;20458;-71
2022/01/19 02:31:46;;;;;;;1.90;0.25;;;6.00;79.10;;;;;;6075207;23;20394;-72
2022/01/19 02:42:30;;;;;;;0.73;0.30;;;5.90;79.10;;;;;;6070397;23;20094;-72
2022/01/19 02:50:27;;;;;;;0.47;0.40;;;5.90;78.90;;;;;;6048310;23;20061;-72
2022/01/19 02:52:55;;;;;;;1.08;0.60;;;5.90;78.90;;;;;;6073833;23;20023;-70
2022/01/19 02:55:23;;;;;;;0.70;0.40;;;5.80;79.10;;;;;;6048620;23;20049;-71
2022/01/19 02:57:50;;;;;;;0.50;0.30;;;5.90;79.10;;;;;;6073257;23;20091;-71
2022/01/19 03:08:46;;;;;;;0.88;0.55;;;5.90;78.80;;;;;;6072491;23;20022;-71
2022/01/19 03:11:16;;;;;;;0.55;0.38;;;5.90;78.80;;;;;;6071855;23;20045;-71
2022/01/19 03:13:43;;;;;;;0.95;0.45;;;5.80;78.80;;;;;;6073247;23;20031;-72
2022/01/19 03:16:11;;;;;;;0.60;0.30;;;5.80;78.90;;;;;;6048724;23;20033;-72
2022/01/19 03:18:38;;;;;;;1.48;0.38;;;5.80;78.80;;;;;;6071072;23;20472;-69
2022/01/19 03:21:06;;;;;;;1.17;0.55;;;5.80;78.80;;;;;;6050826;23;20382;-71
2022/01/19 03:23:35;;;;;;;1.00;0.40;;;5.80;78.80;;;;;;6050004;23;20133;-70
2022/01/19 03:26:05;;;;;;;0.75;0.40;;;5.90;78.80;;;;;;6046522;23;20029;-71
2022/01/19 03:28:33;;;;;;;2.10;0.50;;;5.80;78.80;;;;;;6047356;23;20050;-70
2022/01/19 03:31:00;;;;;;;1.98;0.88;;;5.80;78.70;;;;;;6050547;23;20361;-72
2022/01/19 03:33:28;;;;;;;1.98;1.05;;;5.80;78.60;;;;;;6050685;23;20022;-71
2022/01/19 03:35:55;;;;;;;1.70;1.00;;;5.80;78.70;;;;;;6053582;23;20330;-73
2022/01/19 03:38:22;;;;;;;1.83;1.13;;;5.70;78.70;;;;;;6074909;23;20111;-72
2022/01/19 03:40:51;;;;;;;2.47;1.25;;;5.70;78.80;;;;;;6052403;23;20023;-73
2022/01/19 03:43:18;;;;;;;1.35;0.98;;;5.70;78.80;;;;;;6048326;23;20026;-70
2022/01/19 03:46:04;;;;;;;2.72;0.98;;;5.70;78.80;;;;;;6074087;23;20441;-72
2022/01/19 03:48:44;;;;;;;2.40;1.38;;;5.70;78.90;;;;;;6053792;23;20046;-71
2022/01/19 03:51:11;;;;;;;;;;;5.70;78.90;;;;;;6076435;23;20453;-72
2022/01/19 03:53:39;;;;;;;3.47;1.10;;;5.70;78.80;;;;;;6074202;23;19921;-71
2022/01/19 03:56:07;;;;;;;2.25;1.20;;;5.70;78.80;;;;;;6052587;23;20026;-71
2022/01/19 03:58:35;;;;;;;1.77;1.50;;;5.70;78.90;;;;;;6052368;23;20362;-70
2022/01/19 04:01:03;;;;;;;4.25;1.75;;;5.70;78.70;;;;;;6048262;23;20550;-71
2022/01/19 04:03:46;;;;;;;3.53;1.60;;;5.70;78.50;;;;;;6051994;23;20027;-72
2022/01/19 04:06:17;;;;;;;2.78;1.70;;;5.70;78.40;;;;;;6074438;23;20030;-72
2022/01/19 04:08:44;;;;;;;;;;;5.70;78.20;;;;;;6052017;23;20019;-70
2022/01/19 04:11:14;;;;;;;2.50;1.40;;;5.70;78.20;;;;;;6052760;23;19948;-72
2022/01/19 04:16:41;;;;;;;2.65;1.20;;;5.70;78.20;;;;;;4596241;23;10001958;-69
2022/01/19 04:19:21;;;;;;;2.80;1.70;;;5.70;78.20;;;;;;6075056;23;20118;-71
2022/01/19 04:21:50;;;;;;;3.75;1.20;;;5.70;78.30;;;;;;6051044;23;20022;-71
2022/01/19 04:24:17;;;;;;;3.97;1.65;;;5.70;78.40;;;;;;6073379;23;20050;-70
2022/01/19 04:26:48;;;;;;;2.33;1.30;;;5.60;78.30;;;;;;6047564;23;20682;-72
2022/01/19 04:29:15;;;;;;;3.67;1.60;;;5.70;78.10;;;;;;6047007;23;20095;-72
2022/01/19 04:31:42;;;;;;;2.70;1.55;;;5.60;78.20;;;;;;6044862;23;20022;-72
2022/01/19 04:34:13;;;;;;;3.42;1.83;;;5.70;78.20;;;;;;6075684;23;20022;-72
2022/01/19 04:37:10;;;;;;;3.13;1.38;;;5.60;78.30;;;;;;6052901;23;20031;-71
2022/01/19 04:45:32;;;;;;;3.03;1.48;;;5.70;78.10;;;;;;6075723;23;20517;-70
2022/01/19 05:01:45;;;;;;;4.07;2.00;;;5.60;78.10;;;;;;6073193;23;20186;-71
2022/01/19 05:04:31;;;;;;;3.05;1.55;;;5.60;78.00;;;;;;6055209;23;20287;-71
2022/01/19 05:07:17;;;;;;;4.53;1.95;;;5.60;78.10;;;;;;6054462;23;20066;-71
2022/01/19 05:10:04;;;;;;;5.13;1.83;;;5.60;78.00;;;;;;6055378;23;20054;-71
2022/01/19 05:15:19;;;;;;;5.97;2.33;;;5.60;78.20;;;;;;6079244;23;20150;-71
2022/01/19 05:17:47;;;;;;;4.13;1.70;;;5.70;78.20;;;;;;6054289;23;20133;-71
2022/01/19 05:20:14;;;;;;;3.70;2.20;;;5.60;78.30;;;;;;6055224;23;20030;-71
2022/01/19 05:22:41;;;;;;;4.07;2.47;;;5.60;78.30;;;;;;6055025;23;20074;-71
2022/01/19 05:25:17;;;;;;;4.18;2.40;;;5.60;78.30;;;;;;6054671;23;20023;-70
2022/01/19 05:27:51;;;;;;;4.45;2.30;;;5.70;78.20;;;;;;6079724;23;20023;-70
2022/01/19 05:30:20;;;;;;;4.35;2.15;;;5.60;78.20;;;;;;6077757;23;20027;-71
2022/01/19 05:32:49;;;;;;;4.45;2.55;;;5.60;78.40;;;;;;6076888;23;20025;-71
2022/01/19 05:35:16;;;;;;;4.55;2.35;;;5.60;78.40;;;;;;6075613;23;20223;-71
2022/01/19 05:37:48;;;;;;;3.88;2.53;;;5.60;78.40;;;;;;6077808;23;20761;-71
2022/01/19 05:40:41;;;;;;;4.60;2.50;;;5.60;78.60;;;;;;6051155;23;20031;-71
2022/01/19 05:43:08;;;;;;;4.22;2.20;;;5.60;78.50;;;;;;6073384;23;20457;-70
2022/01/19 05:45:37;;;;;;;5.07;2.75;;;5.60;78.30;;;;;;6074672;23;20035;-71
2022/01/19 05:48:10;;;;;;;6.05;2.42;;;5.60;78.40;;;;;;6074566;23;20450;-71
2022/01/19 05:50:41;;;;;;;4.10;2.38;;;5.60;78.30;;;;;;6050223;23;20023;-71
2022/01/19 05:53:11;;;;;;;6.20;2.60;;;5.50;78.30;;;;;;6073937;23;20062;-71
2022/01/19 05:55:38;;;;;;;5.15;2.53;;;5.50;78.30;;;;;;6050409;23;20074;-70
2022/01/19 05:58:05;;;;;;;4.72;2.28;;;5.50;78.50;;;;;;6049977;23;20019;-72
2022/01/19 06:00:32;;;;;;;4.18;2.90;;;5.40;78.40;;;;;;6070505;23;20335;-70
2022/01/19 06:03:01;;;;;;;4.00;2.50;;;5.40;78.40;;;;;;6048989;23;20031;-72
2022/01/19 06:06:00;;;;;;;3.65;2.47;;;5.40;78.50;;;;;;6049385;23;20030;-72
2022/01/19 06:08:44;;;;;;;4.80;2.50;;;5.30;78.60;;;;;;6071523;23;20326;-70
2022/01/19 06:11:13;;;;;;;3.85;2.40;;;5.20;78.60;;;;;;6074271;23;20029;-71
2022/01/19 06:13:47;;;;;;;5.05;2.50;;;5.20;78.70;;;;;;3814919;23;10021498;-72
2022/01/19 06:16:14;;;;;;;5.05;1.92;;;5.10;78.80;;;;;;2710832;23;10001973;-72
2022/01/19 06:18:43;;;;;;;5.80;2.63;;;5.10;78.90;;;;;;6073858;23;20023;-70
2022/01/19 06:21:10;;;;;;;5.10;2.38;;;5.00;78.80;;;;;;6050674;23;20023;-72
2022/01/19 06:23:41;;;;;;;3.70;2.13;;;5.00;78.80;;;;;;6073769;23;20022;-72
2022/01/19 06:26:10;;;;;;;7.00;2.42;;;4.90;78.90;;;;;;6074596;23;20031;-72
2022/01/19 06:28:38;;;;;;;5.43;2.42;;;4.90;79.00;;;;;;6050805;23;21138;-70
2022/01/19 06:31:06;;;;;;;5.45;2.33;;;4.90;79.00;;;;;;6055651;23;20027;-70
2022/01/19 06:33:33;;;;;;;4.40;2.45;;;4.90;79.00;;;;;;6054568;23;20354;-70
2022/01/19 06:36:02;;;;;;;4.35;2.75;;;4.90;79.00;;;;;;6076566;23;20026;-71
2022/01/19 06:38:52;;;;;;;7.50;3.10;;;4.80;79.00;;;;;;6046480;23;20026;-71
2022/01/19 06:41:26;;;;;;;6.90;2.92;;;4.80;78.90;;;;;;6072963;23;20462;-70
2022/01/19 06:43:53;;;;;;;7.00;3.08;;;4.80;78.90;;;;;;6051438;23;20046;-70
2022/01/19 06:46:20;;;;;;;7.70;3.67;;;4.80;78.80;;;;;;6073567;23;20027;-71
2022/01/19 06:48:47;;;;;;;9.68;4.20;;;4.70;78.90;;;;;;6074962;23;20042;-71
2022/01/19 06:51:17;;;;;;;11.40;2.88;;;4.70;78.90;;;;;;6050306;23;20090;-71
2022/01/19 06:53:49;;;;;;;7.97;3.58;;;4.70;78.80;;;;;;6051366;23;20386;-70
2022/01/19 06:56:21;;;;;;;6.28;3.05;;;4.60;79.00;;;;;;6073352;23;20082;-72
2022/01/19 06:58:55;;;;;;;6.35;2.88;;;4.70;79.10;;;;;;6050414;23;20513;-71
2022/01/19 07:01:33;;;;;;;4.15;2.50;;;4.60;79.00;;;;;;6072762;23;20488;-71
2022/01/19 07:04:20;;;;;;;5.53;2.70;;;4.60;79.00;;;;;;6034690;23;20034;-71
2022/01/19 07:06:49;;;;;;;6.20;2.75;;;4.50;79.10;;;;;;6074955;23;20026;-71
2022/01/19 07:09:17;;;;;;;9.30;3.80;;;4.60;79.10;;;;;;6073157;23;20481;-71
2022/01/19 07:11:56;;;;;;;7.47;3.33;;;4.50;79.00;;;;;;6049302;23;20026;-71
2022/01/19 07:14:24;;;;;;;4.78;2.72;;;4.50;79.00;;;;;;6071776;23;20048;-71
2022/01/19 07:16:54;;;;;;;6.30;3.10;;;4.50;79.10;;;;;;6049577;23;20820;-71
2022/01/19 07:19:21;;;;;;;4.90;2.83;;;4.40;79.10;;;;;;6069661;23;20780;-71
2022/01/19 07:21:50;;;;;;;5.53;2.40;;;4.40;79.20;;;;;;6072979;23;20023;-70
2022/01/19 07:24:17;;;;;;;3.65;2.20;;;4.30;79.20;;;;;;6049568;23;20023;-71
2022/01/19 07:26:44;;;;;;;5.00;2.42;;;4.30;79.30;;;;;;6047848;23;20506;-70
2022/01/19 07:29:14;;;;;;;5.32;2.58;;;4.30;79.30;;;;;;6072266;23;20054;-72
2022/01/19 07:31:43;;;;;;;5.63;3.10;;;4.30;79.30;;;;;;6071436;23;20029;-70
2022/01/19 07:34:10;;;;;;;4.70;2.63;;;4.20;79.40;;;;;;6071313;23;20046;-72
2022/01/19 07:36:38;;;;;;;9.43;3.00;;;4.20;79.40;;;;;;6067358;23;20046;-70
2022/01/19 07:39:07;;;;;;;5.80;2.65;;;4.20;79.40;;;;;;6045441;23;20027;-73
2022/01/19 07:41:38;;;;;;;4.07;2.20;;;4.20;79.50;;;;;;6048117;23;20026;-72
2022/01/19 07:44:25;;;;;;;4.47;2.33;;;4.20;79.40;;;;;;6051487;23;20206;-71
2022/01/19 07:47:27;;;;;;;5.60;2.22;;;4.20;79.50;;;;;;6044150;23;20038;-71
2022/01/19 07:50:29;;;;;;;8.80;2.58;;;4.20;79.50;;;;;;5989120;23;20142;-69
2022/01/19 07:53:14;;;;;;;9.20;2.85;;;4.20;79.40;;;;;;6046308;23;20034;-69
2022/01/19 07:55:49;;;;;;;4.18;2.03;;;4.20;79.60;;;;;;6049460;23;20018;-70
2022/01/19 07:58:34;;;;;;;7.85;2.13;;;4.20;79.60;;;;;;6050799;23;20029;-71
2022/01/19 08:01:14;;;;;;;3.73;1.77;;;4.20;79.60;;;;;;6046870;23;20529;-72
2022/01/19 08:04:14;;;;;;;7.13;2.28;;;4.20;79.50;;;;;;6033201;23;20050;-71
2022/01/19 08:06:41;;;;;;;3.65;1.80;;;4.10;79.60;;;;;;6051802;23;20121;-72
2022/01/19 08:09:09;;;;;;;4.50;2.38;;;4.00;79.70;;;;;;6051310;23;20344;-72
2022/01/19 08:11:38;;;;;;;6.85;2.35;;;4.10;79.70;;;;;;6050208;23;20509;-71
2022/01/19 08:14:22;;;;;;;5.05;2.08;;;4.00;79.70;;;;;;6072865;23;20022;-70
2022/01/19 08:16:49;;;;;;;5.25;2.42;;;4.00;79.80;;;;;;6074213;23;20435;-70
2022/01/19 08:19:17;;;;;;;6.25;2.67;;;4.00;79.80;;;;;;6073075;23;20335;-71
2022/01/19 08:21:44;;;;;;;4.13;1.92;;;4.00;79.80;;;;;;6051450;23;20019;-72
2022/01/19 08:24:11;;;;;;;7.53;2.35;;;4.00;80.00;;;;;;5980324;23;20467;-69
2022/01/19 08:26:48;;;;;;;3.09;1.60;;;4.10;79.90;;;;;;653999;23;10150735;-69
2022/01/19 08:29:20;;;;;;;7.57;2.20;;;4.00;80.00;;;;;;6049996;23;20676;-70
2022/01/19 08:31:47;;;;;;;2.78;1.48;;;4.10;80.10;;;;;;6074549;23;20526;-71
2022/01/19 08:34:34;;;;;;;2.97;2.00;;;4.10;80.10;;;;;;6051078;23;20278;-70
2022/01/19 08:37:31;;;;;;;3.13;1.77;;;4.00;80.10;;;;;;6051403;23;20078;-71
2022/01/19 08:40:05;;;;;;;4.10;2.03;;;4.10;80.20;;;;;;6075878;23;20026;-71
2022/01/19 08:42:36;;;;;;;5.10;2.40;;;4.10;80.10;;;;;;6051139;23;20038;-70
2022/01/19 08:45:07;;;;;;;6.25;1.95;;;4.20;80.20;;;;;;6076890;23;20027;-71
2022/01/19 08:47:35;;;;;;;6.95;2.45;;;4.20;80.20;;;;;;6050705;23;20027;-70
2022/01/19 08:50:10;;;;;;;4.68;1.98;;;4.20;80.20;;;;;;6050459;23;20489;-70
2022/01/19 08:53:09;;;;;;;3.47;2.15;;;4.20;80.30;;;;;;6030614;23;20166;-70
2022/01/19 08:55:42;;;;;;;3.85;1.80;;;4.20;80.20;;;;;;6073951;23;20093;-71
2022/01/19 08:58:11;;;;;;;7.40;2.45;;;4.20;80.10;;;;;;6051301;23;20026;-71
2022/01/19 09:00:38;;;;;;;6.00;2.70;;;4.20;80.10;;;;;;6049858;23;20022;-70
2022/01/19 09:03:05;;;;;;;3.75;1.60;;;4.20;79.90;;;;;;6051506;23;20022;-69
2022/01/19 09:05:32;;;;;;;4.97;2.25;;;4.20;80.00;;;;;;6051869;23;20421;-69
2022/01/19 09:07:59;;;;;;;6.40;2.47;;;4.30;79.80;;;;;;6051370;23;20030;-69
2022/01/19 09:10:26;;;;;;;6.78;3.05;;;4.30;79.90;;;;;;6049772;23;20082;-72
2022/01/19 09:12:53;;;;;;;6.45;2.45;;;4.30;79.80;;;;;;6050558;23;20018;-70
2022/01/19 09:15:23;;;;;;;7.88;2.40;;;4.40;79.80;;;;;;6050450;23;20370;-70
2022/01/19 09:17:50;;;;;;;4.95;2.17;;;4.30;79.70;;;;;;6051634;23;20025;-70
2022/01/19 09:20:17;;;;;;;6.13;2.75;;;4.40;79.60;;;;;;6052092;23;20019;-72
2022/01/19 09:22:45;;;;;;;4.32;2.28;;;4.30;79.70;;;;;;6052285;23;20041;-70
2022/01/19 09:25:13;;;;;;;6.50;2.38;;;4.40;79.60;;;;;;6051401;23;20046;-72
2022/01/19 09:27:41;;;;;;;5.05;2.28;;;4.40;79.70;;;;;;6050810;23;20033;-71
2022/01/19 09:30:11;;;;;;;4.22;2.05;;;4.40;79.80;;;;;;6054468;23;20057;-70
2022/01/19 09:32:40;;;;;;;5.50;1.83;;;4.50;79.80;;;;;;6052913;23;20125;-71
2022/01/19 09:35:09;;;;;;;6.22;2.53;;;4.60;79.70;;;;;;6054102;23;20473;-71
2022/01/19 09:37:37;;;;;;;5.70;2.05;;;4.50;79.70;;;;;;6051139;23;20029;-71
2022/01/19 09:40:05;;;;;;;4.65;2.08;;;4.60;79.70;;;;;;6074053;23;20338;-70
2022/01/19 09:42:32;;;;;;;5.03;1.98;;;4.60;79.60;;;;;;6052205;23;20030;-70
2022/01/19 09:44:59;;;;;;;8.15;2.53;;;4.60;79.60;;;;;;6051989;23;20086;-69
2022/01/19 09:47:26;;;;;;;8.43;2.83;;;4.60;79.60;;;;;;6052232;23;20019;-72
2022/01/19 09:49:54;;;;;;;5.50;2.58;;;4.70;79.60;;;;;;6051998;23;20335;-70
2022/01/19 09:52:21;;;;;;;5.75;2.67;;;4.70;79.40;;;;;;6050618;23;20023;-70
2022/01/19 09:54:48;;;;;;;8.45;2.35;;;4.70;79.30;;;;;;6052934;23;20046;-71
2022/01/19 09:57:15;;;;;;;3.72;2.20;;;4.70;79.00;;;;;;6055074;23;20506;-70
2022/01/19 09:59:42;;;;;;;4.70;2.05;;;4.70;78.80;;;;;;6056484;23;20094;-71
2022/01/19 10:02:11;;;;;;;8.27;2.42;;;4.80;78.70;;;;;;6051063;23;20129;-70
2022/01/19 10:04:42;;;;;;;5.28;2.35;;;4.90;78.80;;;;;;6051941;23;20029;-70
2022/01/19 10:07:20;;;;;;;3.72;1.67;;;4.90;78.60;;;;;;6052667;23;20707;-70
2022/01/19 10:09:52;;;;;;;5.50;2.17;;;4.90;78.30;;;;;;6052416;23;20339;-69
2022/01/19 10:18:23;;;;;;;4.50;2.00;;;5.00;78.30;;;;;;5963140;24;20055;-71
2022/01/19 10:21:06;;;;;;;5.97;2.83;;;5.00;78.30;;;;;;6033920;23;20011;-71
2022/01/19 10:23:37;;;;;;;6.40;2.65;;;5.00;78.20;;;;;;6052219;23;20029;-70
2022/01/19 10:26:07;;;;;;;9.45;2.88;;;5.10;78.10;;;;;;6051915;23;20038;-70
2022/01/19 10:28:57;;;;;;;6.30;2.78;;;5.10;78.10;;;;;;6052867;23;20033;-71
2022/01/19 10:31:24;;;;;;;5.35;2.33;;;5.20;77.70;;;;;;6050998;23;20366;-70
2022/01/19 10:34:16;;;;;;;5.40;2.25;;;5.20;77.60;;;;;;6055466;23;20026;-70
2022/01/19 10:36:44;;;;;;;6.90;2.53;;;5.20;77.60;;;;;;6052274;23;20033;-71
2022/01/19 10:39:13;;;;;;;11.43;2.50;;;5.30;77.40;;;;;;6050598;23;20109;-71
2022/01/19 10:41:59;;;;;;;8.65;2.88;;;5.30;77.20;;;;;;6048933;23;20046;-71
2022/01/19 10:44:31;;;;;;;6.32;2.40;;;5.30;77.10;;;;;;6051475;23;20027;-71
2022/01/19 10:46:58;;;;;;;5.63;2.55;;;5.40;76.90;;;;;;6051975;23;20105;-71
2022/01/19 10:49:25;;;;;;;5.45;2.38;;;5.40;76.70;;;;;;6050660;23;20023;-71
2022/01/19 10:51:57;;;;;;;7.82;3.58;;;5.50;76.50;;;;;;6050897;23;20043;-71
2022/01/19 10:54:27;;;;;;;7.35;3.00;;;5.50;76.20;;;;;;6050533;23;20382;-71
2022/01/19 10:56:58;;;;;;;8.03;3.60;;;5.40;76.10;;;;;;6049691;23;20040;-71
2022/01/19 10:59:27;;;;;;;5.57;2.72;;;5.50;75.80;;;;;;6048593;23;20489;-71
2022/01/19 11:01:56;;;;;;;4.55;2.08;;;5.50;75.80;;;;;;6048199;23;20357;-69
2022/01/19 11:04:28;;;;;;;4.50;2.33;;;5.60;75.90;;;;;;6049528;23;20022;-70
2022/01/19 11:06:59;;;;;;;6.28;2.65;;;5.50;75.80;;;;;;6051105;23;20074;-70
2022/01/19 11:09:29;;;;;;;4.43;2.13;;;5.60;75.90;;;;;;6051322;23;20109;-69
2022/01/19 11:11:58;;;;;;;7.75;3.17;;;5.60;75.70;;;;;;6053125;23;20223;-70
2022/01/19 11:14:26;;;;;;;6.03;2.60;;;5.60;75.90;;;;;;6051050;23;20372;-71
2022/01/19 11:16:54;;;;;;;6.10;2.50;;;5.60;75.80;;;;;;6052424;23;20294;-70
2022/01/19 11:19:22;;;;;;;7.28;2.92;;;5.70;75.90;;;;;;6052151;23;20103;-71
2022/01/19 11:22:04;;;;;;;9.52;3.20;;;5.70;75.70;;;;;;6053078;23;20093;-70
2022/01/19 11:24:42;;;;;;;7.53;2.20;;;5.80;75.70;;;;;;6052174;23;20094;-72
2022/01/19 11:27:10;;;;;;;4.65;2.53;;;5.90;75.60;;;;;;6052012;23;20037;-71
2022/01/19 11:29:40;;;;;;;9.88;2.75;;;5.90;75.60;;;;;;6051751;23;20029;-71
2022/01/19 11:32:18;;;;;;;5.95;3.35;;;5.90;75.60;;;;;;6052462;23;20129;-72
2022/01/19 11:34:49;;;;;;;6.55;2.75;;;6.00;75.40;;;;;;6052332;23;20080;-71
2022/01/19 11:37:31;;;;;;;6.47;2.78;;;6.00;75.20;;;;;;6051240;23;20023;-70
2022/01/19 11:40:19;;;;;;;7.65;3.50;;;6.00;75.20;;;;;;6052634;23;20309;-70
2022/01/19 11:42:46;;;;;;;5.68;2.67;;;6.00;75.20;;;;;;6052199;23;20037;-71
2022/01/19 11:45:39;;;;;;;5.05;2.88;;;5.90;75.20;;;;;;6073913;23;20398;-70
2022/01/19 11:48:17;;;;;;;6.57;3.17;;;5.90;75.10;;;;;;6051153;23;20710;-71
2022/01/19 11:50:46;;;;;;;8.52;3.60;;;5.90;75.00;;;;;;6052157;23;20027;-69
2022/01/19 11:53:14;;;;;;;8.23;3.53;;;5.90;75.00;;;;;;6052840;23;20458;-70
2022/01/19 11:56:01;;;;;;;9.40;3.88;;;5.80;75.10;;;;;;6051819;23;20029;-70
2022/01/19 11:58:30;;;;;;;7.68;2.92;;;5.80;75.40;;;;;;6073829;23;20323;-71
2022/01/19 12:00:58;;;;;;;8.75;3.80;;;5.80;75.40;;;;;;6047617;23;20414;-70
2022/01/19 12:03:27;;;;;;;9.32;2.97;;;5.70;75.60;;;;;;6051206;23;20321;-70
2022/01/19 12:05:56;;;;;;;7.75;3.80;;;5.80;75.60;;;;;;6051799;23;20031;-71
2022/01/19 12:08:27;;;;;;;9.30;4.22;;;5.80;75.60;;;;;;6050537;23;20018;-70
2022/01/19 12:10:58;;;;;;;7.47;3.00;;;5.70;75.50;;;;;;6051063;23;20118;-69
2022/01/19 12:16:38;;;;;;;8.02;3.60;;;5.70;75.60;;;;;;3962434;23;10001974;-72
2022/01/19 12:19:15;;;;;;;6.82;3.42;;;5.70;75.80;;;;;;6050447;23;20027;-71
2022/01/19 12:21:47;;;;;;;6.35;2.80;;;5.70;75.90;;;;;;6049440;23;20019;-71
2022/01/19 12:24:21;;;;;;;8.10;4.00;;;5.70;75.80;;;;;;6049347;23;20023;-70
2022/01/19 12:26:51;;;;;;;8.32;3.75;;;5.80;75.70;;;;;;6049584;23;20023;-69
2022/01/19 12:29:48;;;;;;;8.02;3.65;;;5.70;75.70;;;;;;6048903;23;20027;-69
2022/01/19 12:32:40;;;;;;;6.85;3.63;;;5.70;75.80;;;;;;6049946;23;20023;-69
2022/01/19 12:35:11;;;;;;;8.40;3.67;;;5.70;76.00;;;;;;6049842;23;20259;-69
2022/01/19 12:37:42;;;;;;;8.35;3.35;;;5.70;76.00;;;;;;6049787;23;20023;-72
2022/01/19 12:40:42;;;;;;;6.90;3.58;;;5.70;76.10;;;;;;6050426;23;20125;-71
2022/01/19 12:43:13;;;;;;;8.63;3.08;;;5.70;76.20;;;;;;6049208;23;20138;-70
2022/01/19 12:45:49;;;;;;;9.43;4.47;;;5.70;76.20;;;;;;6050823;23;20374;-71
2022/01/19 12:48:34;;;;;;;10.43;4.00;;;5.70;76.20;;;;;;6052202;23;20023;-71
2022/01/19 12:51:02;;;;;;;9.10;4.40;;;5.70;76.30;;;;;;6051588;23;20022;-71
2022/01/19 12:53:29;;;;;;;13.13;5.32;;;5.70;76.30;;;;;;6049701;23;20051;-70
2022/01/19 12:55:59;;;;;;;9.45;3.72;;;5.70;76.20;;;;;;6051755;23;20019;-72
2022/01/19 12:58:31;;;;;;;7.75;3.45;;;5.70;76.40;;;;;;6051094;23;20063;-70
2022/01/19 13:01:02;;;;;;;17.15;5.35;;;5.70;76.40;;;;;;6050438;23;20054;-70
2022/01/19 13:03:35;;;;;;;10.95;4.15;;;5.70;76.40;;;;;;6050596;23;20430;-70
2022/01/19 13:06:05;;;;;;;11.45;4.55;;;5.70;76.40;;;;;;6051468;23;20073;-70
2022/01/19 13:08:36;;;;;;;8.73;4.43;;;5.70;76.50;;;;;;6051086;23;20881;-69
2022/01/19 13:11:18;;;;;;;8.18;4.10;;;5.70;76.60;;;;;;6052395;23;20027;-70
2022/01/19 13:14:03;;;;;;;9.10;3.95;;;5.70;76.70;;;;;;6050357;23;20019;-70
2022/01/19 13:16:33;;;;;;;12.23;5.05;;;5.70;76.70;;;;;;6050634;23;20449;-70
2022/01/19 13:19:03;;;;;;;8.60;3.65;;;5.70;76.60;;;;;;6052287;23;20109;-71
2022/01/19 13:21:32;;;;;;;9.68;4.35;;;5.60;76.70;;;;;;6050050;23;20138;-71
2022/01/19 13:24:02;;;;;;;8.45;4.65;;;5.60;76.80;;;;;;6051962;23;20476;-69
2022/01/19 13:26:40;;;;;;;;;;;5.60;76.90;;;;;;6053334;23;20054;-71
2022/01/19 13:29:22;;;;;;;12.90;4.40;;;5.60;76.90;;;;;;6052662;23;20028;-70
2022/01/19 13:31:54;;;;;;;8.95;4.07;;;5.60;77.20;;;;;;6053996;23;20076;-70
2022/01/19 13:34:21;;;;;;;8.90;4.30;;;5.50;77.40;;;;;;6052900;23;20029;-71
2022/01/19 13:36:55;;;;;;;10.00;4.55;;;5.50;77.50;;;;;;6053382;23;20046;-70
2022/01/19 13:39:24;;;;;;;13.45;5.03;;;5.50;77.80;;;;;;6053488;23;20347;-71
2022/01/19 13:41:53;;;;;;;10.52;4.03;;;5.50;77.90;;;;;;6053068;23;20018;-71
2022/01/19 13:44:32;;;;;;;10.80;4.55;;;5.40;78.20;;;;;;6054079;23;20022;-69
2022/01/19 13:47:10;;;;;;;8.63;4.55;;;5.40;78.40;;;;;;6052549;23;20117;-70
2022/01/19 13:49:37;;;;;;;10.82;4.82;;;5.40;78.30;;;;;;6050491;23;20019;-70
2022/01/19 13:52:05;;;;;;;11.15;5.15;;;5.40;78.30;;;;;;6051201;23;20030;-70
2022/01/19 13:54:36;;;;;;;10.80;5.00;;;5.30;78.40;;;;;;6050884;23;20031;-72
2022/01/19 13:57:03;;;;;;;14.38;5.38;;;5.30;78.50;;;;;;6053146;23;20022;-71
2022/01/19 13:59:31;;;;;;;9.60;4.43;;;5.30;78.40;;;;;;6052667;23;20023;-73
2022/01/19 14:02:00;;;;;;;9.75;4.22;;;5.30;78.30;;;;;;6051389;23;20025;-70
2022/01/19 14:04:28;;;;;;;8.40;3.75;;;5.30;78.30;;;;;;6054784;23;20027;-71
2022/01/19 14:07:05;;;;;;;9.40;4.80;;;5.20;78.60;;;;;;6053624;23;20030;-70
2022/01/19 14:09:34;;;;;;;8.98;3.80;;;5.20;78.50;;;;;;6054510;23;20086;-70
2022/01/19 14:12:03;;;;;;;10.80;5.03;;;5.20;78.60;;;;;;6038616;23;20030;-70
2022/01/19 14:14:41;;;;;;;4.87;2.97;;;5.20;78.70;;;;;;4520544;23;10020757;-70
2022/01/19 14:17:10;;;;;;;7.72;3.65;;;5.20;78.60;;;;;;2502020;23;10002009;-70
2022/01/19 14:19:44;;;;;;;9.13;4.25;;;5.20;78.60;;;;;;6053565;23;20026;-71
2022/01/19 14:22:12;;;;;;;12.57;5.28;;;5.20;78.50;;;;;;6052081;23;20369;-71
2022/01/19 14:24:54;;;;;;;9.90;4.28;;;5.20;78.50;;;;;;6053979;23;20027;-70
2022/01/19 14:27:39;;;;;;;8.23;4.20;;;5.20;78.50;;;;;;6054651;23;20023;-71
2022/01/19 14:30:11;;;;;;;11.13;4.20;;;5.20;78.70;;;;;;6057312;23;20419;-71
2022/01/19 14:32:41;;;;;;;9.35;4.03;;;5.10;78.70;;;;;;6053261;23;20418;-71
2022/01/19 14:35:28;;;;;;;10.63;4.80;;;5.10;78.70;;;;;;6057404;23;20022;-71